Time;durP1;ratioP1;P1;durP2;ratioP2;P2;SDS_P1;SDS_P2;PMS_P1;PMS_P2;Temp;Humidity;BMP_temperature;BMP_pressure;BME280_temperature;BME280_humidity;BME280_pressure;Samples;Min_cycle;Max_cycle;Signal;HPM_P1;HPM_P2
2021/01/10 00:02:10;;;;;;;34.75;20.55;;;;;;;4.61;68.89;101713.06;4992125;28;20385;-92
2021/01/10 00:04:36;;;;;;;34.90;19.73;;;;;;;4.70;68.82;101708.50;4993786;28;20023;-93
2021/01/10 00:07:01;;;;;;;34.03;19.63;;;;;;;4.48;68.79;101705.53;4992757;28;20058;-93
2021/01/10 00:09:27;;;;;;;38.78;20.27;;;;;;;4.71;68.30;101705.00;4992755;28;20038;-94
2021/01/10 00:11:52;;;;;;;39.42;22.27;;;;;;;4.59;68.72;101697.47;4992334;28;20029;-92
2021/01/10 00:14:17;;;;;;;37.15;21.23;;;;;;;4.69;68.08;101708.53;4992443;28;20029;-93
2021/01/10 00:16:43;;;;;;;38.45;22.80;;;;;;;4.77;68.46;101697.03;4992553;28;20500;-95
2021/01/10 00:19:08;;;;;;;37.63;22.30;;;;;;;4.79;68.47;101696.16;4992665;28;20060;-92
2021/01/10 00:21:37;;;;;;;39.35;21.67;;;;;;;4.67;68.14;101699.91;4992298;28;20050;-93
2021/01/10 00:24:04;;;;;;;41.97;23.83;;;;;;;4.72;68.74;101682.41;4993301;28;20037;-93
2021/01/10 00:26:39;;;;;;;39.05;23.63;;;;;;;4.54;69.49;101692.38;4992321;28;20101;-93
2021/01/10 00:29:06;;;;;;;41.53;22.27;;;;;;;4.60;68.10;101683.59;4991771;28;20030;-93
2021/01/10 00:31:33;;;;;;;42.20;22.65;;;;;;;4.43;69.20;101681.34;4992594;28;20026;-94
2021/01/10 00:33:59;;;;;;;38.38;21.33;;;;;;;4.72;69.11;101682.41;4992426;28;20030;-94
2021/01/10 00:36:32;;;;;;;36.65;19.27;;;;;;;4.76;67.84;101694.50;4992288;28;20162;-94
2021/01/10 00:38:58;;;;;;;35.33;18.38;;;;;;;4.39;69.33;101684.06;4992119;28;20478;-93
2021/01/10 00:41:23;;;;;;;31.00;17.30;;;;;;;4.59;69.10;101687.06;4992471;28;20031;-92
2021/01/10 00:43:48;;;;;;;33.25;19.17;;;;;;;4.50;68.72;101677.72;4992354;28;20034;-93
2021/01/10 00:46:14;;;;;;;38.58;22.10;;;;;;;4.52;68.13;101685.47;4992218;28;20030;-94
2021/01/10 00:48:40;;;;;;;33.05;19.02;;;;;;;4.60;68.14;101675.78;4991928;28;20033;-94
2021/01/10 00:51:14;;;;;;;32.05;18.75;;;;;;;4.74;68.67;101678.91;4992402;28;20022;-94
2021/01/10 00:53:40;;;;;;;32.13;18.23;;;;;;;4.76;68.23;101671.94;4992259;28;20030;-94
2021/01/10 00:56:07;;;;;;;31.00;19.58;;;;;;;4.33;69.61;101672.03;4993397;28;20031;-94
2021/01/10 00:58:33;;;;;;;31.83;18.10;;;;;;;4.57;67.97;101679.28;4992016;28;20491;-94
2021/01/10 01:00:58;;;;;;;31.90;18.75;;;;;;;4.66;67.88;101673.03;4993322;28;20018;-94
2021/01/10 01:03:24;;;;;;;32.85;18.15;;;;;;;4.71;68.32;101671.16;4991768;28;20030;-94
2021/01/10 01:05:49;;;;;;;31.15;18.48;;;;;;;4.72;67.46;101675.50;4991968;28;20113;-94
2021/01/10 01:08:14;;;;;;;33.83;18.63;;;;;;;4.62;67.63;101676.59;4992180;28;20596;-94
2021/01/10 01:10:49;;;;;;;32.42;18.42;;;;;;;4.62;69.08;101676.59;4991995;28;20040;-94
2021/01/10 01:13:14;;;;;;;31.45;18.80;;;;;;;4.64;68.26;101680.03;4992463;28;20030;-96
2021/01/10 01:15:40;;;;;;;37.35;20.30;;;;;;;4.71;68.44;101676.38;4992410;28;20073;-95
2021/01/10 01:18:07;;;;;;;30.48;18.27;;;;;;;4.76;68.52;101676.28;4991979;28;20049;-95
2021/01/10 01:20:32;;;;;;;35.60;20.58;;;;;;;4.63;68.35;101675.69;4992210;28;20147;-94
2021/01/10 01:22:57;;;;;;;37.40;20.55;;;;;;;4.49;69.19;101670.81;4992143;28;20091;-95
2021/01/10 01:25:23;;;;;;;38.28;20.30;;;;;;;4.69;69.05;101674.69;4993183;28;20030;-94
2021/01/10 01:27:48;;;;;;;41.13;20.55;;;;;;;4.65;68.65;101671.31;4992152;28;20030;-95
2021/01/10 01:30:14;;;;;;;37.53;21.08;;;;;;;4.74;68.79;101668.50;4991886;28;20026;-95
2021/01/10 01:32:39;;;;;;;36.78;20.85;;;;;;;4.86;68.67;101674.28;4991708;28;20492;-95
2021/01/10 01:35:05;;;;;;;35.92;19.98;;;;;;;4.83;68.62;101661.38;4992076;28;20034;-96
2021/01/10 01:37:33;;;;;;;36.70;20.45;;;;;;;4.83;68.70;101663.97;4992225;28;20096;-95
2021/01/10 01:39:58;;;;;;;37.13;20.40;;;;;;;4.49;69.90;101667.34;4991890;28;20105;-95
2021/01/10 01:42:24;;;;;;;31.00;18.83;;;;;;;4.67;68.68;101655.69;4995932;28;20061;-96
2021/01/10 01:44:49;;;;;;;36.00;20.02;;;;;;;4.88;68.89;101656.94;4996174;28;20117;-95
2021/01/10 01:47:18;;;;;;;39.95;23.23;;;;;;;4.85;67.65;101657.84;4995911;28;20026;-96
2021/01/10 01:49:44;;;;;;;39.92;21.17;;;;;;;4.81;68.35;101650.16;4995925;28;20038;-96
2021/01/10 01:52:10;;;;;;;43.92;22.98;;;;;;;4.80;68.41;101651.03;4996414;28;20034;-95
2021/01/10 01:54:36;;;;;;;34.40;20.73;;;;;;;4.90;68.28;101658.59;4995935;28;20096;-95
2021/01/10 01:57:01;;;;;;;40.38;21.75;;;;;;;4.91;68.10;101646.41;4995720;28;20034;-96
2021/01/10 01:59:27;;;;;;;47.47;23.90;;;;;;;4.74;68.58;101644.25;4995808;28;20501;-95
2021/01/10 02:01:52;;;;;;;47.05;24.70;;;;;;;4.83;69.06;101658.75;4995232;28;20462;-96
2021/01/10 02:04:34;;;;;;;42.72;23.95;;;;;;;4.48;69.69;101661.31;4995584;28;20117;-96
2021/01/10 02:07:27;;;;;;;40.22;22.52;;;;;;;4.47;69.50;101650.94;4995730;28;20050;-96
2021/01/10 02:10:01;;;;;;;36.40;21.98;;;;;;;4.46;69.79;101657.84;4994825;28;20034;-95
2021/01/10 02:12:30;;;;;;;37.25;20.95;;;;;;;4.68;69.09;101655.66;4995605;28;20026;-96
2021/01/10 02:15:06;;;;;;;41.17;22.60;;;;;;;4.62;69.39;101671.41;4995693;28;20022;-95
2021/01/10 02:17:33;;;;;;;42.72;22.98;;;;;;;4.67;68.83;101673.88;4995079;28;20373;-95
2021/01/10 02:20:24;;;;;;;41.42;23.17;;;;;;;4.84;68.09;101670.88;4995706;28;20029;-96
2021/01/10 02:22:54;;;;;;;41.40;23.05;;;;;;;4.62;69.55;101663.59;4995499;28;20027;-96
2021/01/10 02:25:22;;;;;;;42.72;24.45;;;;;;;4.66;68.26;101662.63;4995536;28;20018;-96
2021/01/10 02:27:48;;;;;;;37.10;23.00;;;;;;;4.59;69.25;101666.25;4995587;28;20029;-95
2021/01/10 02:30:14;;;;;;;38.88;24.13;;;;;;;4.72;69.10;101659.88;4996202;28;20037;-96
2021/01/10 02:32:44;;;;;;;43.30;24.10;;;;;;;4.56;69.00;101663.72;4996109;28;20026;-96
2021/01/10 02:35:10;;;;;;;39.42;23.67;;;;;;;4.64;68.74;101659.22;4996232;28;20022;-96
2021/01/10 02:38:01;;;;;;;36.85;23.33;;;;;;;4.43;69.46;101672.69;4997721;28;20026;-96
2021/01/10 02:40:32;;;;;;;36.88;22.40;;;;;;;4.49;68.17;101668.19;4998278;28;20384;-96
2021/01/10 02:43:15;;;;;;;36.10;21.40;;;;;;;4.54;68.58;101665.50;4996195;28;20027;-95
2021/01/10 02:45:42;;;;;;;35.78;21.70;;;;;;;4.61;68.60;101664.47;4995992;28;20033;-96
2021/01/10 02:48:10;;;;;;;35.60;21.85;;;;;;;4.63;68.59;101659.25;4997345;28;20146;-96
2021/01/10 02:50:36;;;;;;;40.70;23.67;;;;;;;4.59;68.06;101660.22;4997767;28;20117;-96
2021/01/10 02:53:03;;;;;;;34.72;21.92;;;;;;;4.61;68.54;101658.41;4997035;28;20065;-96
2021/01/10 02:55:29;;;;;;;42.72;25.10;;;;;;;4.50;69.51;101656.06;4996868;28;20097;-96
2021/01/10 02:58:01;;;;;;;41.45;25.60;;;;;;;4.55;69.14;101656.81;4995679;28;20564;-96
2021/01/10 03:00:28;;;;;;;42.30;25.60;;;;;;;4.59;68.48;101655.84;4995702;28;20034;-96
2021/01/10 03:02:55;;;;;;;42.45;26.85;;;;;;;4.48;68.95;101657.81;4996579;28;20030;-96
2021/01/10 03:05:22;;;;;;;44.05;25.10;;;;;;;4.54;69.05;101655.09;4996677;28;20062;-96
2021/01/10 03:07:48;;;;;;;44.70;26.35;;;;;;;4.53;68.92;101658.59;4997933;28;20046;-96
2021/01/10 03:10:13;;;;;;;42.33;25.25;;;;;;;4.56;68.59;101645.50;4998530;28;20080;-96
2021/01/10 03:12:40;;;;;;;44.80;27.75;;;;;;;4.41;68.51;101651.06;5000465;28;20081;-96
2021/01/10 03:15:07;;;;;;;35.97;23.65;;;;;;;4.51;68.42;101640.41;5001114;28;20028;-96
2021/01/10 03:17:38;;;;;;;37.53;24.17;;;;;;;4.55;69.45;101643.81;5001723;28;20054;-96
2021/01/10 03:20:09;;;;;;;43.30;27.08;;;;;;;4.52;68.46;101636.94;5005251;28;20022;-96
2021/01/10 03:22:35;;;;;;;40.67;26.10;;;;;;;4.55;68.97;101643.81;5006673;28;20030;-96
2021/01/10 03:25:02;;;;;;;48.85;28.42;;;;;;;4.51;68.93;101643.00;5007434;28;20018;-96
2021/01/10 03:27:28;;;;;;;42.65;26.02;;;;;;;4.62;68.44;101636.69;5009634;28;20057;-96
2021/01/10 03:29:53;;;;;;;40.58;26.60;;;;;;;4.64;68.67;101633.19;5011799;28;20030;-95
2021/01/10 03:32:20;;;;;;;45.30;26.10;;;;;;;4.70;68.52;101626.97;5012809;28;20022;-96
2021/01/10 03:34:45;;;;;;;39.78;24.88;;;;;;;4.65;68.12;101621.03;5014322;28;20026;-96
2021/01/10 03:37:11;;;;;;;46.20;27.17;;;;;;;4.61;68.27;101622.84;5016339;28;20037;-96
2021/01/10 03:39:37;;;;;;;38.53;24.60;;;;;;;4.64;68.20;101617.59;5016811;28;20033;-96
2021/01/10 03:42:04;;;;;;;43.05;27.15;;;;;;;4.63;68.67;101620.22;5017823;28;20026;-96
2021/01/10 03:44:30;;;;;;;45.63;28.00;;;;;;;4.39;67.29;101609.50;5017541;28;20018;-96
2021/01/10 03:47:28;;;;;;;43.60;27.02;;;;;;;4.32;68.82;101600.97;5019282;28;20027;-96
2021/01/10 03:49:54;;;;;;;40.28;24.60;;;;;;;4.23;68.20;101616.78;5014225;28;20512;-96
2021/01/10 03:52:26;;;;;;;46.05;27.27;;;;;;;4.11;67.85;101604.91;5016470;28;20031;-96
2021/01/10 03:55:24;;;;;;;46.22;27.20;;;;;;;4.08;68.74;101606.72;5017491;28;20022;-96
2021/01/10 03:58:13;;;;;;;43.58;25.90;;;;;;;3.95;68.66;101614.78;4990237;28;20086;-96
2021/01/10 04:03:40;;;;;;;46.20;27.45;;;;;;;3.63;68.33;101588.59;5048342;23;20056;-96
2021/01/10 04:37:12;;;;;;;46.58;27.02;;;;;;;2.94;69.84;101573.47;5584700;22;20048;-96
2021/01/10 04:42:15;;;;;;;54.30;31.70;;;;;;;2.92;69.54;101566.56;5754745;22;20045;-96
2021/01/10 04:44:40;;;;;;;50.88;28.83;;;;;;;3.00;70.43;101566.44;5078476;28;20021;-96
2021/01/10 04:47:10;;;;;;;51.95;28.30;;;;;;;2.88;69.30;101560.56;5438025;22;20045;-96
2021/01/10 04:49:36;;;;;;;46.92;28.92;;;;;;;2.64;69.90;101573.97;5078270;28;20055;-96
2021/01/10 04:52:04;;;;;;;51.10;28.52;;;;;;;2.76;70.50;101556.47;5077974;28;20017;-96
2021/01/10 04:54:35;;;;;;;51.53;28.98;;;;;;;2.71;69.65;101550.50;5078257;28;20055;-96
2021/01/10 04:59:39;;;;;;;53.55;30.13;;;;;;;2.74;70.66;101571.19;5398097;22;20043;-96
2021/01/10 05:02:08;;;;;;;51.55;28.92;;;;;;;2.75;70.35;101551.31;5363169;22;20012;-96
2021/01/10 05:40:42;;;;;;;49.65;28.75;;;;;;;2.76;69.77;101550.41;5051587;28;20067;-96
2021/01/10 05:43:09;;;;;;;47.15;26.90;;;;;;;2.68;69.84;101542.75;5052301;28;20026;-96
2021/01/10 05:45:36;;;;;;;49.63;27.30;;;;;;;2.65;69.60;101541.97;5052660;28;20032;-96
2021/01/10 05:48:13;;;;;;;52.80;28.40;;;;;;;2.80;69.50;101572.81;5052411;28;20093;-96
2021/01/10 05:50:43;;;;;;;47.67;25.75;;;;;;;2.63;70.17;101542.00;5052442;28;20016;-96
2021/01/10 05:53:18;;;;;;;47.22;27.33;;;;;;;2.54;69.75;101537.81;5050617;28;20029;-96
2021/01/10 05:55:59;;;;;;;50.65;28.08;;;;;;;2.80;70.35;101579.75;5048720;28;20021;-96
2021/01/10 05:58:30;;;;;;;54.47;29.33;;;;;;;2.56;70.40;101545.56;5044668;28;20090;-96
2021/01/10 06:00:59;;;;;;;57.53;30.15;;;;;;;2.37;70.17;101566.59;5036863;28;20173;-96
2021/01/10 06:03:31;;;;;;;55.25;27.45;;;;;;;2.40;70.15;101550.13;5045969;28;20026;-96
2021/01/10 06:06:01;;;;;;;49.05;28.35;;;;;;;2.57;70.46;101560.25;5048460;28;20014;-96
2021/01/10 06:08:30;;;;;;;59.60;29.67;;;;;;;2.37;71.06;101560.56;5048070;28;20030;-96
2021/01/10 06:11:18;;;;;;;47.80;26.58;;;;;;;2.41;70.88;101540.63;5045163;28;20025;-96
2021/01/10 06:13:59;;;;;;;50.15;27.00;;;;;;;2.52;70.31;101547.34;5049076;28;20060;-96
2021/01/10 06:16:31;;;;;;;49.90;26.95;;;;;;;2.63;70.59;101552.38;5043943;28;20052;-96
2021/01/10 06:18:57;;;;;;;;;;;;;;;2.78;70.37;101575.47;5050056;28;20049;-96
2021/01/10 06:21:26;;;;;;;48.78;26.13;;;;;;;2.74;70.46;101558.22;5049788;28;19917;-96
2021/01/10 06:23:54;;;;;;;45.17;25.15;;;;;;;2.58;70.91;101543.78;5046851;28;20056;-96
2021/01/10 06:26:22;;;;;;;52.92;27.25;;;;;;;2.43;70.62;101541.44;5041931;28;20025;-96
2021/01/10 06:28:53;;;;;;;50.42;27.58;;;;;;;2.47;70.20;101541.41;5043509;28;20026;-96
2021/01/10 06:31:28;;;;;;;47.00;27.05;;;;;;;2.60;70.54;101559.34;5043351;28;20025;-96
2021/01/10 06:34:12;;;;;;;51.55;27.00;;;;;;;2.62;70.75;101566.19;5044461;28;20029;-96
2021/01/10 06:36:42;;;;;;;53.85;27.23;;;;;;;2.56;70.71;101563.72;5044854;28;20076;-96
2021/01/10 06:39:13;;;;;;;49.35;26.85;;;;;;;2.56;70.42;101545.56;5044306;28;20065;-96
2021/01/10 06:41:56;;;;;;;49.10;26.45;;;;;;;2.65;71.46;101580.88;5043636;28;20430;-96
2021/01/10 06:44:23;;;;;;;51.88;27.95;;;;;;;2.57;71.25;101553.31;5043073;28;20017;-96
2021/01/10 06:46:53;;;;;;;58.75;28.52;;;;;;;2.38;72.33;101534.59;5045332;28;20060;-96
2021/01/10 06:49:20;;;;;;;49.42;27.15;;;;;;;2.57;72.12;101548.13;5046415;28;20022;-96
2021/01/10 06:51:47;;;;;;;56.45;29.35;;;;;;;2.54;72.12;101539.53;5043338;28;20442;-96
2021/01/10 06:54:12;;;;;;;50.03;28.08;;;;;;;2.76;72.36;101566.84;5043004;28;20088;-96
2021/01/10 06:56:38;;;;;;;60.05;27.40;;;;;;;2.80;72.06;101535.66;5040804;28;20064;-96
2021/01/10 06:59:08;;;;;;;47.60;25.90;;;;;;;2.82;71.35;101531.28;5042027;28;20033;-96
2021/01/10 07:01:50;;;;;;;52.70;26.85;;;;;;;3.05;71.08;101570.66;5040256;28;20068;-96
2021/01/10 07:04:17;;;;;;;38.30;20.58;;;;;;;2.98;70.98;101563.84;5040515;28;20469;-96
2021/01/10 07:06:50;;;;;;;45.03;25.50;;;;;;;2.90;71.26;101558.84;5038960;28;20466;-96
2021/01/10 07:09:17;;;;;;;42.08;23.73;;;;;;;2.85;70.72;101554.59;5038834;28;20120;-96
2021/01/10 07:11:43;;;;;;;45.35;25.42;;;;;;;2.88;71.14;101554.53;5037655;28;20112;-96
2021/01/10 07:14:08;;;;;;;44.03;24.63;;;;;;;3.06;70.59;101585.34;5053619;28;20116;-96
2021/01/10 07:16:34;;;;;;;46.95;25.75;;;;;;;2.98;70.70;101582.91;5036577;28;20083;-96
2021/01/10 07:19:04;;;;;;;44.40;23.42;;;;;;;3.01;71.16;101594.09;5035921;28;20033;-96
2021/01/10 07:21:35;;;;;;;43.30;24.45;;;;;;;2.86;70.91;101564.06;5039000;28;20036;-95
2021/01/10 07:24:13;;;;;;;39.03;22.13;;;;;;;2.98;70.61;101582.00;5054212;28;20071;-96
2021/01/10 07:26:41;;;;;;;42.20;22.98;;;;;;;2.92;70.83;101569.16;5038676;28;20254;-96
2021/01/10 07:29:29;;;;;;;44.35;23.45;;;;;;;2.94;70.38;101583.84;5038610;28;20107;-96
2021/01/10 07:31:58;;;;;;;42.80;22.95;;;;;;;2.91;70.75;101585.63;5041190;28;20033;-96
2021/01/10 07:34:23;;;;;;;38.58;20.35;;;;;;;2.88;70.42;101578.72;5037194;28;20032;-96
2021/01/10 07:36:53;;;;;;;44.13;24.02;;;;;;;2.82;70.64;101573.63;5038431;28;20018;-96
2021/01/10 07:39:21;;;;;;;42.95;21.77;;;;;;;2.83;70.58;101579.72;5035538;28;20460;-96
2021/01/10 07:41:46;;;;;;;41.17;22.05;;;;;;;2.77;71.14;101571.13;5037329;28;20022;-96
2021/01/10 07:44:12;;;;;;;40.83;21.90;;;;;;;2.83;70.96;101579.72;5040841;28;20459;-96
2021/01/10 07:46:51;;;;;;;41.72;22.02;;;;;;;2.82;70.33;101578.84;5041176;28;20048;-96
2021/01/10 07:51:52;;;;;;;39.25;22.63;;;;;;;2.65;70.75;101549.75;5493072;22;19921;-96
2021/01/10 07:54:18;;;;;;;41.00;21.77;;;;;;;2.69;71.02;101557.44;5016594;28;20038;-96
2021/01/10 07:56:44;;;;;;;40.47;19.33;;;;;;;2.68;70.83;101549.69;5017263;28;20022;-96
2021/01/10 07:59:16;;;;;;;31.58;18.95;;;;;;;2.70;70.04;101563.47;5023650;28;20026;-96
2021/01/10 08:03:27;;;;;;;33.75;18.70;;;;;;;2.76;70.29;101572.03;5079243;27;20337;-95
2021/01/10 08:06:14;;;;;;;39.55;21.17;;;;;;;2.84;70.97;101576.22;5074727;28;20556;-96
2021/01/10 08:08:48;;;;;;;34.13;19.63;;;;;;;2.85;70.55;101565.81;5093947;28;20041;-96
2021/01/10 08:11:33;;;;;;;36.05;20.30;;;;;;;2.93;71.12;101573.47;5085627;28;20052;-95
2021/01/10 08:13:58;;;;;;;39.85;22.63;;;;;;;2.76;70.08;101561.66;5072954;28;20056;-94
2021/01/10 08:16:34;;;;;;;49.33;25.63;;;;;;;2.74;70.38;101568.59;5078688;28;20103;-95
2021/01/10 08:19:08;;;;;;;45.40;24.83;;;;;;;2.78;70.20;101570.28;5088137;28;20033;-96
2021/01/10 08:21:36;;;;;;;38.47;22.08;;;;;;;2.89;70.12;101575.25;5076298;28;20335;-96
2021/01/10 08:25:21;;;;;;;38.60;22.88;;;;;;;2.71;69.75;101552.25;5112997;27;20409;-96
2021/01/10 08:27:47;;;;;;;41.78;23.70;;;;;;;2.78;68.94;101546.06;5097308;28;20051;-96
2021/01/10 08:30:14;;;;;;;36.83;21.48;;;;;;;2.75;70.05;101536.59;5077862;28;20008;-96
2021/01/10 08:32:52;;;;;;;41.42;21.23;;;;;;;2.85;70.09;101544.22;5212548;23;20070;-96
2021/01/10 08:37:53;;;;;;;33.13;19.42;;;;;;;2.94;69.25;101554.41;5197614;23;20053;-96
2021/01/10 08:40:19;;;;;;;37.28;20.88;;;;;;;3.04;68.83;101579.34;5014625;28;20058;-96
2021/01/10 08:42:45;;;;;;;34.45;19.08;;;;;;;2.81;68.73;101556.38;5013265;28;20026;-96
2021/01/10 08:45:20;;;;;;;34.30;19.20;;;;;;;2.70;68.89;101551.38;5009253;28;20054;-96
2021/01/10 08:47:47;;;;;;;33.28;19.10;;;;;;;2.86;69.72;101549.34;4991282;28;20046;-96
2021/01/10 08:50:14;;;;;;;33.08;17.67;;;;;;;3.08;69.37;101559.34;4992606;28;20030;-96
2021/01/10 08:52:52;;;;;;;29.95;16.67;;;;;;;3.41;69.22;101593.38;5002008;23;20070;-94
2021/01/10 08:55:17;;;;;;;32.97;17.17;;;;;;;3.37;68.33;101593.41;4998003;28;20189;-93
2021/01/10 08:57:43;;;;;;;27.75;15.65;;;;;;;3.42;68.79;101601.13;5025038;28;20600;-92
2021/01/10 09:00:09;;;;;;;33.50;16.75;;;;;;;3.43;68.36;101595.03;5008857;28;20476;-94
2021/01/10 09:02:35;;;;;;;37.03;17.77;;;;;;;3.52;69.41;101594.03;4984697;28;20504;-93
2021/01/10 09:05:01;;;;;;;33.67;17.73;;;;;;;3.57;68.69;101592.16;4971166;28;20120;-93
2021/01/10 09:07:27;;;;;;;28.85;16.50;;;;;;;3.66;68.75;101606.72;4972275;28;20543;-93
2021/01/10 09:10:08;;;;;;;32.47;18.65;;;;;;;3.50;68.55;101594.03;4989664;28;20041;-93
2021/01/10 09:12:38;;;;;;;33.33;18.52;;;;;;;3.46;69.10;101596.75;4972009;28;20358;-93
2021/01/10 09:15:22;;;;;;;30.02;17.38;;;;;;;3.69;69.68;101604.94;4972016;28;20041;-92
2021/01/10 09:17:57;;;;;;;30.00;17.02;;;;;;;3.73;68.11;101605.69;4989469;28;20386;-93
2021/01/10 09:20:29;;;;;;;34.95;18.20;;;;;;;3.94;69.17;101594.03;4970915;28;20030;-93
2021/01/10 09:22:55;;;;;;;;;;;;;;;4.07;67.65;101598.06;4989275;28;20406;-92
2021/01/10 09:25:21;;;;;;;30.02;17.52;;;;;;;4.03;67.33;101580.84;4987600;28;19914;-93
2021/01/10 09:28:09;;;;;;;34.67;17.55;;;;;;;4.27;68.51;101602.81;4971313;28;20072;-92
2021/01/10 09:31:01;;;;;;;28.90;17.48;;;;;;;4.16;67.84;101592.66;4989449;28;20054;-93
2021/01/10 09:33:31;;;;;;;31.58;17.50;;;;;;;4.27;66.82;101591.59;4967444;28;20061;-92
2021/01/10 09:35:58;;;;;;;34.58;19.92;;;;;;;4.47;68.15;101583.31;4961231;28;20090;-93
2021/01/10 09:38:28;;;;;;;29.98;16.88;;;;;;;4.71;67.49;101595.72;4958180;28;20077;-92
2021/01/10 09:41:02;;;;;;;27.85;16.50;;;;;;;4.82;65.98;101605.88;4975667;28;20031;-91
2021/01/10 09:43:39;;;;;;;25.83;16.58;;;;;;;4.93;66.98;101601.22;4958670;28;20026;-91
2021/01/10 09:46:23;;;;;;;31.15;17.15;;;;;;;5.17;67.30;101606.69;4958487;28;20037;-91
2021/01/10 09:48:55;;;;;;;26.75;16.05;;;;;;;5.19;65.63;101570.22;4975322;28;20272;-91
2021/01/10 09:51:20;;;;;;;32.47;19.13;;;;;;;5.29;65.21;101601.19;4958401;28;20031;-90
2021/01/10 09:53:49;;;;;;;28.95;16.98;;;;;;;5.58;65.81;101609.94;4989757;23;20830;-95
2021/01/10 09:56:35;;;;;;;32.53;18.17;;;;;;;5.75;65.95;101604.28;4959866;28;20481;-94
2021/01/10 09:59:01;;;;;;;31.20;17.17;;;;;;;5.98;64.86;101608.84;4961356;28;20037;-95
2021/01/10 10:01:37;;;;;;;33.95;19.67;;;;;;;6.29;64.02;101610.53;4959522;28;20027;-95
2021/01/10 10:04:05;;;;;;;30.77;20.15;;;;;;;6.32;63.50;101600.84;4975286;28;20045;-95
2021/01/10 10:06:49;;;;;;;30.10;19.60;;;;;;;6.61;62.66;101608.66;4976178;28;20105;-96
2021/01/10 10:09:15;;;;;;;30.05;18.73;;;;;;;6.94;63.78;101611.94;4975406;28;20023;-94
2021/01/10 10:11:40;;;;;;;32.45;19.48;;;;;;;7.19;61.66;101618.91;4975494;28;20034;-95
2021/01/10 10:14:08;;;;;;;28.95;18.63;;;;;;;7.64;62.50;101612.97;4974508;28;20388;-94
2021/01/10 10:16:33;;;;;;;27.70;18.77;;;;;;;7.88;59.05;101608.63;4962467;28;20275;-96
2021/01/10 10:18:58;;;;;;;27.17;19.00;;;;;;;8.37;59.37;101600.63;4970661;28;20219;-96
2021/01/10 10:21:24;;;;;;;31.48;19.38;;;;;;;9.06;56.76;101610.94;4975342;28;20113;-95
2021/01/10 10:23:50;;;;;;;26.88;17.42;;;;;;;9.36;56.57;101618.41;4981606;28;20023;-96
2021/01/10 10:26:15;;;;;;;28.30;16.98;;;;;;;9.65;54.21;101609.25;4986635;28;20033;-96
2021/01/10 10:28:41;;;;;;;30.15;17.67;;;;;;;9.73;54.47;101612.38;4975987;28;20106;-94
2021/01/10 10:31:06;;;;;;;23.70;16.42;;;;;;;10.04;56.01;101610.97;4957477;28;20035;-95
2021/01/10 10:33:31;;;;;;;24.00;16.58;;;;;;;9.72;55.89;101611.53;4945734;28;20058;-95
2021/01/10 10:35:57;;;;;;;22.10;15.68;;;;;;;10.31;55.49;101614.13;4957844;28;20041;-86
2021/01/10 10:38:22;;;;;;;22.02;16.05;;;;;;;10.62;53.22;101608.22;4976496;28;20489;-96
2021/01/10 10:40:47;;;;;;;22.65;15.65;;;;;;;10.68;52.59;101607.94;4958288;28;20045;-96
2021/01/10 10:43:13;;;;;;;20.92;15.40;;;;;;;10.81;51.66;101604.69;4958436;28;20030;-96
2021/01/10 10:45:38;;;;;;;20.02;13.43;;;;;;;10.96;51.88;101611.81;4958356;28;20042;-95
2021/01/10 10:48:04;;;;;;;18.25;14.38;;;;;;;11.11;51.87;101602.28;4957433;28;20445;-94
2021/01/10 10:50:29;;;;;;;17.60;13.10;;;;;;;11.19;51.62;101615.06;4973069;28;20106;-94
2021/01/10 10:52:55;;;;;;;21.13;14.60;;;;;;;10.67;51.27;101610.66;4957877;28;20030;-94
2021/01/10 10:55:22;;;;;;;19.42;14.23;;;;;;;10.59;52.32;101605.75;4956983;28;20030;-95
2021/01/10 10:57:47;;;;;;;18.23;13.00;;;;;;;10.91;51.94;101604.16;4972229;28;20023;-92
2021/01/10 11:00:14;;;;;;;19.42;13.30;;;;;;;10.90;51.42;101606.88;4972392;28;20057;-94
2021/01/10 11:02:40;;;;;;;18.40;13.07;;;;;;;11.29;51.24;101603.13;4971297;28;20113;-94
2021/01/10 11:05:06;;;;;;;19.17;12.77;;;;;;;10.98;51.16;101598.59;4976595;28;20122;-94
2021/01/10 11:07:33;;;;;;;20.60;14.77;;;;;;;11.26;52.05;101603.31;4963241;28;20029;-94
2021/01/10 11:09:59;;;;;;;19.13;13.95;;;;;;;10.58;52.39;101600.56;4968544;28;20533;-96
2021/01/10 11:12:24;;;;;;;23.77;16.20;;;;;;;10.75;52.38;101591.88;4956841;28;20116;-96
2021/01/10 11:14:50;;;;;;;20.08;14.23;;;;;;;10.64;52.80;101587.13;4973385;28;20026;-95
2021/01/10 11:17:15;;;;;;;20.00;13.35;;;;;;;11.18;51.52;101595.81;4974325;28;20027;-94
2021/01/10 11:19:41;;;;;;;19.98;14.18;;;;;;;11.26;51.11;101588.38;4972734;28;20110;-91
2021/01/10 11:22:07;;;;;;;18.48;13.82;;;;;;;11.82;50.67;101594.19;4955699;28;20129;-95
2021/01/10 11:24:34;;;;;;;17.60;11.75;;;;;;;12.50;49.29;101582.56;4955756;28;20560;-94
2021/01/10 11:27:00;;;;;;;20.33;15.20;;;;;;;12.61;49.02;101581.94;4955938;28;20035;-91
2021/01/10 11:29:26;;;;;;;19.08;14.07;;;;;;;12.81;48.54;101580.78;4956228;28;20084;-92
2021/01/10 11:31:52;;;;;;;22.45;15.02;;;;;;;13.07;47.75;101577.47;4956366;28;20489;-93
2021/01/10 11:34:18;;;;;;;20.52;15.32;;;;;;;11.45;50.78;101582.13;4974221;28;20073;-94
2021/01/10 11:36:49;;;;;;;24.27;14.88;;;;;;;12.27;50.73;101571.53;4974535;28;20437;-95
2021/01/10 11:39:16;;;;;;;23.08;15.60;;;;;;;12.30;49.04;101566.09;4973399;28;20062;-95
2021/01/10 11:41:43;;;;;;;20.95;14.73;;;;;;;12.78;49.07;101558.09;4956530;28;20038;-96
2021/01/10 11:44:09;;;;;;;17.92;13.93;;;;;;;13.74;47.23;101561.09;4955388;28;20523;-95
2021/01/10 11:46:34;;;;;;;24.45;15.20;;;;;;;12.79;49.71;101558.94;4956976;28;20113;-95
2021/01/10 11:49:00;;;;;;;18.92;13.35;;;;;;;13.33;47.95;101559.25;4973213;28;20023;-95
2021/01/10 11:51:25;;;;;;;18.40;12.40;;;;;;;13.39;47.30;101548.31;4956058;28;20030;-96
2021/01/10 11:53:51;;;;;;;21.00;13.48;;;;;;;13.22;46.90;101537.91;4965977;23;20050;-90
2021/01/10 11:56:16;;;;;;;17.48;13.05;;;;;;;13.79;46.16;101529.97;4936487;29;20038;-90
2021/01/10 11:58:42;;;;;;;18.05;13.05;;;;;;;13.76;46.00;101546.00;4953508;28;20517;-88
2021/01/10 12:01:08;;;;;;;18.95;13.07;;;;;;;14.21;46.60;101554.56;4953812;28;20533;-90
2021/01/10 12:03:34;;;;;;;15.68;12.73;;;;;;;14.45;43.83;101524.84;4923005;29;20040;-89
2021/01/10 12:05:59;;;;;;;16.48;12.82;;;;;;;14.84;43.92;101536.38;4934882;29;20394;-91
2021/01/10 12:08:24;;;;;;;16.20;12.48;;;;;;;14.27;45.24;101538.31;4932883;29;20020;-92
2021/01/10 12:10:50;;;;;;;15.13;10.80;;;;;;;13.85;44.75;101532.22;4917486;29;20034;-92
2021/01/10 12:13:16;;;;;;;15.88;11.13;;;;;;;14.06;45.93;101531.81;4934940;29;20191;-91
2021/01/10 12:15:44;;;;;;;15.70;11.63;;;;;;;14.07;45.33;101526.41;4917638;29;20024;-91
2021/01/10 12:18:10;;;;;;;17.25;12.52;;;;;;;13.50;47.30;101529.16;4934306;29;20059;-91
2021/01/10 12:20:35;;;;;;;15.85;11.32;;;;;;;13.42;47.80;101516.44;4933049;29;20470;-91
2021/01/10 12:23:01;;;;;;;16.02;11.45;;;;;;;13.00;48.55;101520.75;4917056;29;20118;-91
2021/01/10 12:25:27;;;;;;;18.50;12.73;;;;;;;11.95;50.39;101522.47;4934109;29;20032;-91
2021/01/10 12:27:53;;;;;;;16.67;11.98;;;;;;;11.52;52.52;101520.41;4934674;29;20367;-92
2021/01/10 12:30:19;;;;;;;15.70;11.18;;;;;;;11.52;52.07;101515.97;4916593;29;20051;-91
2021/01/10 12:32:44;;;;;;;16.45;12.10;;;;;;;11.34;52.92;101506.47;4934116;29;20027;-91
2021/01/10 12:35:12;;;;;;;17.42;11.88;;;;;;;11.07;54.55;101514.03;4916818;29;20055;-91
2021/01/10 12:37:38;;;;;;;15.30;10.90;;;;;;;10.54;55.43;101481.69;4935039;29;20063;-91
2021/01/10 12:40:05;;;;;;;19.20;12.30;;;;;;;10.45;55.79;101493.53;4936302;29;20406;-89
2021/01/10 12:42:31;;;;;;;17.88;10.80;;;;;;;10.37;56.32;101506.19;4935011;29;20102;-90
2021/01/10 12:44:56;;;;;;;15.90;11.25;;;;;;;10.27;57.32;101495.25;4934681;29;20035;-91
2021/01/10 12:47:22;;;;;;;17.23;10.77;;;;;;;10.56;57.18;101508.72;4918178;29;20533;-90
2021/01/10 12:49:47;;;;;;;13.43;10.20;;;;;;;10.43;57.01;101507.66;4918555;29;20028;-91